createdAt,value
2023-01-23T01:16:17.720Z,9.00
2023-01-23T01:18:50.922Z,8.68
2023-01-23T01:21:24.383Z,9.03
2023-01-23T01:23:56.735Z,8.90
2023-01-23T01:26:31.508Z,6.97
2023-01-23T01:29:04.073Z,9.80
2023-01-23T01:31:36.882Z,10.40
2023-01-23T01:34:09.332Z,8.95
2023-01-23T01:36:41.934Z,8.45
2023-01-23T01:39:14.322Z,7.92
2023-01-23T01:41:47.381Z,9.85
2023-01-23T01:44:23.654Z,8.70
2023-01-23T01:46:56.185Z,7.87
2023-01-23T01:49:32.585Z,7.78
2023-01-23T01:52:09.425Z,8.38
2023-01-23T01:54:50.682Z,7.62
2023-01-23T01:57:36.980Z,7.37
2023-01-23T02:00:19.858Z,8.70
2023-01-23T02:02:59.578Z,6.58
2023-01-23T02:05:39.936Z,8.18
2023-01-23T02:08:37.924Z,6.92
2023-01-23T02:11:10.712Z,7.50
2023-01-23T02:13:43.691Z,6.90
2023-01-23T02:16:24.552Z,7.83
2023-01-23T02:19:03.889Z,7.05
2023-01-23T02:21:36.391Z,7.17
2023-01-23T02:24:35.019Z,6.60
2023-01-23T02:27:08.544Z,7.47
2023-01-23T02:29:48.127Z,8.70
2023-01-23T02:32:22.467Z,5.37
2023-01-23T02:34:58.269Z,7.45
2023-01-23T02:37:33.640Z,6.47
2023-01-23T02:40:08.045Z,7.35
2023-01-23T02:42:43.332Z,8.20
2023-01-23T02:45:17.902Z,7.35
2023-01-23T02:47:50.601Z,7.22
2023-01-23T02:50:23.039Z,6.22
2023-01-23T02:52:57.400Z,7.95
2023-01-23T02:58:24.395Z,6.03
2023-01-23T03:00:56.764Z,5.72
2023-01-23T03:03:30.927Z,7.47
2023-01-23T03:06:06.134Z,8.28
2023-01-23T03:08:40.710Z,6.80
2023-01-23T03:11:14.246Z,6.50
2023-01-23T03:13:48.615Z,7.87
2023-01-23T03:16:21.236Z,6.50
2023-01-23T03:18:55.017Z,8.43
2023-01-23T03:21:27.812Z,6.85
2023-01-23T03:24:01.741Z,5.87
2023-01-23T03:26:34.418Z,7.70
2023-01-23T03:29:24.606Z,11.68
2023-01-23T03:31:57.102Z,8.93
2023-01-23T03:34:30.769Z,7.65
2023-01-23T03:37:03.678Z,7.20
2023-01-23T03:39:56.193Z,8.68
2023-01-23T03:42:29.450Z,10.72
2023-01-23T03:45:02.327Z,8.63
2023-01-23T03:47:36.320Z,8.45
2023-01-23T03:50:11.701Z,7.05
2023-01-23T03:52:44.355Z,9.23
2023-01-23T03:55:17.292Z,12.55
2023-01-23T03:57:50.264Z,9.53
2023-01-23T04:00:25.498Z,12.20
2023-01-23T04:03:02.711Z,10.23
2023-01-23T04:05:35.516Z,12.40
2023-01-23T04:08:08.715Z,10.70
2023-01-23T04:10:42.029Z,10.23
2023-01-23T04:13:17.272Z,9.93
2023-01-23T04:15:50.002Z,11.25
2023-01-23T04:18:22.544Z,10.63
2023-01-23T04:20:55.795Z,8.85
2023-01-23T04:23:28.389Z,10.68
2023-01-23T04:26:01.242Z,10.90
2023-01-23T04:28:33.966Z,12.10
2023-01-23T04:31:07.011Z,9.98
2023-01-23T04:33:40.357Z,10.90
2023-01-23T04:36:13.808Z,10.88
2023-01-23T04:38:46.110Z,11.57
2023-01-23T04:44:00.248Z,11.50
2023-01-23T04:46:33.287Z,11.60
2023-01-23T04:49:07.382Z,12.00
2023-01-23T04:51:41.683Z,11.22
2023-01-23T04:54:14.416Z,14.40
2023-01-23T04:56:47.331Z,13.50
2023-01-23T04:59:21.751Z,13.85
2023-01-23T05:01:55.664Z,14.13
2023-01-23T05:04:29.367Z,13.05
2023-01-23T05:07:01.672Z,12.35
2023-01-23T05:09:35.295Z,46.23
2023-01-23T05:12:08.486Z,15.45
2023-01-23T05:14:42.421Z,15.98
2023-01-23T05:17:14.877Z,13.75
2023-01-23T05:19:48.981Z,12.55
2023-01-23T05:22:24.014Z,10.68
2023-01-23T05:24:57.541Z,12.43
2023-01-23T05:27:31.764Z,12.75
2023-01-23T05:30:04.485Z,13.05
2023-01-23T05:32:38.753Z,11.08
2023-01-23T05:37:51.765Z,11.95
2023-01-23T05:40:26.336Z,12.30
2023-01-23T05:43:12.495Z,12.43
2023-01-23T05:46:04.941Z,12.00
2023-01-23T05:48:44.956Z,12.90
2023-01-23T05:51:17.977Z,14.50
2023-01-23T05:53:50.896Z,11.15
2023-01-23T05:56:23.354Z,10.50
2023-01-23T05:59:00.947Z,9.68
2023-01-23T06:01:35.754Z,11.38
2023-01-23T06:04:08.200Z,43.92
2023-01-23T06:06:42.270Z,14.80
2023-01-23T06:09:14.741Z,13.65
2023-01-23T06:11:47.916Z,11.35
2023-01-23T06:14:20.596Z,11.33
2023-01-23T06:16:53.288Z,10.23
2023-01-23T06:19:26.281Z,13.05
2023-01-23T06:21:58.939Z,12.28
2023-01-23T06:24:33.150Z,10.48
2023-01-23T06:29:49.815Z,11.43
2023-01-23T06:32:23.684Z,14.50
2023-01-23T06:34:56.353Z,9.67
2023-01-23T06:37:29.348Z,12.00
2023-01-23T06:40:03.098Z,11.08
2023-01-23T06:42:36.215Z,10.63
2023-01-23T06:45:10.657Z,8.93
2023-01-23T06:50:16.339Z,10.00
2023-01-23T06:52:49.127Z,9.80
2023-01-23T06:55:24.284Z,10.88
2023-01-23T06:57:57.054Z,9.25
2023-01-23T07:00:29.924Z,11.97
2023-01-23T07:03:04.428Z,10.88
2023-01-23T07:05:43.108Z,12.07
2023-01-23T07:08:16.219Z,10.30
2023-01-23T07:10:51.069Z,10.43
2023-01-23T07:13:23.572Z,11.22
2023-01-23T07:15:57.093Z,10.70
2023-01-23T07:18:30.532Z,12.53
2023-01-23T07:21:06.509Z,12.70
2023-01-23T07:23:39.041Z,9.90
2023-01-23T07:26:12.283Z,11.10
2023-01-23T07:28:44.755Z,9.83
2023-01-23T07:31:17.378Z,9.98
2023-01-23T07:33:50.671Z,8.80
2023-01-23T07:36:23.109Z,9.30
2023-01-23T07:38:56.451Z,11.57
2023-01-23T07:41:28.861Z,8.55
2023-01-23T07:44:01.561Z,8.93
2023-01-23T07:46:34.165Z,8.20
2023-01-23T07:49:07.758Z,9.30
2023-01-23T07:51:40.530Z,11.00
2023-01-23T07:54:13.282Z,9.38
2023-01-23T07:56:46.480Z,9.93
2023-01-23T07:59:19.442Z,9.15
2023-01-23T08:01:52.811Z,7.50
2023-01-23T08:04:25.722Z,8.28
2023-01-23T08:06:58.091Z,8.20
2023-01-23T08:09:30.477Z,9.30
2023-01-23T08:12:03.281Z,9.65
2023-01-23T10:28:23.030Z,10.38
2023-01-23T10:31:00.335Z,11.38
2023-01-23T10:33:40.563Z,9.43
2023-01-23T10:36:27.383Z,8.88
2023-01-23T10:39:20.294Z,11.28
2023-01-23T10:42:01.505Z,10.35
2023-01-23T10:44:27.222Z,9.70
2023-01-23T10:47:03.786Z,12.13
2023-01-23T10:49:39.136Z,12.25
2023-01-23T10:52:33.548Z,13.68
2023-01-23T10:55:10.142Z,11.43
2023-01-23T10:57:49.408Z,13.40
2023-01-23T11:00:47.161Z,13.78
2023-01-23T11:03:29.342Z,14.45
2023-01-23T11:06:15.427Z,10.43
2023-01-23T11:08:55.095Z,13.03
2023-01-23T11:11:30.761Z,13.15
2023-01-23T11:14:16.959Z,14.00
2023-01-23T11:16:51.156Z,11.08
2023-01-23T11:19:23.840Z,15.00
2023-01-23T11:22:02.451Z,11.63
2023-01-23T11:24:40.724Z,10.53
2023-01-23T11:27:26.761Z,13.65
2023-01-23T11:30:28.350Z,12.53
2023-01-23T11:33:04.893Z,15.88
2023-01-23T11:36:06.556Z,12.43
2023-01-23T11:38:52.740Z,13.50
2023-01-23T11:41:32.741Z,11.35
2023-01-23T11:44:09.999Z,12.53
2023-01-23T11:46:59.106Z,9.80
2023-01-23T11:50:11.702Z,11.40
2023-01-23T11:53:18.072Z,14.60
2023-01-23T11:56:04.046Z,12.13
2023-01-23T11:59:18.895Z,15.13
2023-01-23T12:02:26.682Z,16.27
2023-01-23T12:05:43.381Z,11.25
2023-01-23T12:12:08.131Z,14.55
2023-01-23T12:14:48.750Z,14.20
2023-01-23T12:17:33.005Z,14.25
2023-01-23T12:20:26.766Z,13.03
2023-01-23T12:23:22.286Z,14.78
2023-01-23T12:26:14.125Z,17.80
2023-01-23T12:29:18.984Z,13.70
2023-01-23T12:32:18.043Z,13.30
2023-01-23T12:35:15.137Z,13.80
2023-01-23T12:38:03.951Z,14.05
2023-01-23T12:40:59.481Z,15.55
2023-01-23T12:43:58.280Z,16.37
2023-01-23T12:46:53.031Z,16.23
2023-01-23T12:49:40.885Z,14.98
2023-01-23T12:52:35.594Z,18.15
2023-01-23T12:55:27.839Z,13.98
2023-01-23T12:58:08.966Z,15.18
2023-01-23T13:00:49.265Z,17.00
2023-01-23T13:03:44.900Z,15.35
2023-01-23T13:09:31.261Z,15.88
2023-01-23T13:12:22.494Z,19.62
2023-01-23T13:15:12.734Z,15.48
2023-01-23T13:17:53.005Z,25.25
2023-01-23T13:20:53.509Z,18.60
2023-01-23T13:23:32.713Z,16.30
2023-01-23T13:26:28.342Z,18.17
2023-01-23T13:29:04.218Z,21.90
2023-01-23T13:31:49.237Z,18.30
2023-01-23T13:34:27.208Z,20.05
2023-01-23T13:37:03.357Z,20.10
2023-01-23T13:39:37.536Z,21.48
2023-01-23T13:42:39.339Z,20.32
2023-01-23T13:45:28.297Z,25.70
2023-01-23T13:48:31.893Z,23.87
2023-01-23T13:51:19.975Z,27.20
2023-01-23T13:54:11.317Z,26.40
2023-01-23T13:56:45.621Z,19.45
2023-01-23T13:59:32.003Z,19.17
2023-01-23T14:02:51.515Z,25.48
2023-01-23T14:05:30.444Z,23.92
2023-01-23T14:08:07.675Z,24.45
2023-01-23T14:10:43.972Z,20.85
2023-01-23T14:13:20.573Z,18.20
2023-01-23T14:16:12.094Z,19.55
2023-01-23T14:18:56.474Z,22.62
2023-01-23T14:21:41.071Z,19.15
2023-01-23T14:24:22.330Z,20.70
2023-01-23T14:27:07.775Z,13.70
2023-01-23T14:29:38.910Z,17.55
2023-01-23T14:32:27.345Z,15.93
2023-01-23T14:35:00.737Z,19.42
2023-01-23T14:37:33.722Z,16.60
2023-01-23T14:43:13.790Z,20.70
2023-01-23T14:45:49.767Z,20.37
2023-01-23T14:48:22.407Z,20.65
2023-01-23T14:51:27.801Z,20.40
2023-01-23T14:54:10.466Z,37.33
2023-01-23T14:56:41.753Z,75.05
2023-01-23T14:59:35.157Z,29.37
2023-01-23T15:02:34.438Z,30.35
2023-01-23T15:05:34.881Z,29.02
2023-01-23T15:08:21.422Z,18.92
2023-01-23T15:10:53.903Z,23.50
2023-01-23T15:13:37.082Z,21.45
2023-01-23T15:16:19.860Z,22.32
2023-01-23T15:19:20.086Z,22.87
2023-01-23T15:21:52.409Z,16.60
2023-01-23T15:24:49.679Z,18.45
2023-01-23T15:27:36.600Z,17.90
2023-01-23T15:30:42.823Z,21.10
2023-01-23T15:33:31.135Z,18.48
2023-01-23T15:36:09.300Z,21.07
2023-01-23T15:38:41.636Z,19.87
2023-01-23T15:41:17.299Z,21.25
2023-01-23T15:43:48.234Z,20.40
2023-01-23T15:46:21.379Z,24.47
2023-01-23T15:48:54.863Z,18.98
2023-01-23T15:51:27.274Z,22.62
2023-01-23T15:54:00.694Z,19.67
2023-01-23T15:56:35.204Z,17.27
2023-01-23T15:59:16.659Z,18.02
2023-01-23T16:01:49.367Z,24.00
2023-01-23T16:04:22.184Z,23.12
2023-01-23T16:06:54.581Z,21.37
2023-01-23T16:09:32.629Z,23.27
2023-01-23T16:12:05.590Z,25.25
2023-01-23T16:14:38.366Z,29.00
2023-01-23T16:17:16.688Z,25.08
2023-01-23T16:19:45.099Z,34.40
2023-01-23T19:21:15.974Z,28.30
2023-01-23T19:23:55.082Z,29.95
2023-01-23T19:26:53.983Z,30.37
2023-01-23T19:29:26.583Z,31.65
2023-01-23T19:32:05.473Z,29.10
2023-01-23T19:34:35.329Z,28.32
2023-01-23T19:37:08.474Z,30.90
2023-01-23T19:39:42.011Z,25.52
2023-01-23T19:42:16.598Z,26.47
2023-01-23T19:44:49.530Z,36.03
2023-01-23T19:47:23.076Z,28.98
2023-01-23T19:49:57.149Z,25.10
2023-01-23T19:52:31.730Z,26.75
2023-01-23T19:55:04.477Z,29.12
2023-01-23T19:57:37.478Z,31.93
2023-01-23T20:00:16.537Z,31.57
2023-01-23T20:02:49.362Z,60.35
2023-01-23T20:05:22.539Z,35.63
2023-01-23T20:10:28.240Z,32.08
2023-01-23T20:13:01.119Z,30.80
2023-01-23T20:15:33.978Z,27.42
2023-01-23T20:18:07.470Z,26.68
2023-01-23T20:20:40.089Z,25.95
2023-01-23T20:23:12.868Z,29.10
2023-01-23T20:25:45.733Z,29.40
2023-01-23T20:28:18.871Z,30.75
2023-01-23T20:30:53.017Z,28.95
2023-01-23T20:33:26.356Z,26.80
2023-01-23T20:35:58.929Z,25.27
2023-01-23T20:38:31.386Z,27.65
2023-01-23T20:41:10.045Z,20.75
2023-01-23T20:43:46.033Z,21.15
2023-01-23T20:46:19.605Z,25.02
2023-01-23T20:48:52.343Z,21.77
2023-01-23T20:51:24.929Z,25.27
2023-01-23T20:53:58.294Z,22.58
2023-01-23T20:56:31.106Z,29.18
2023-01-23T20:59:21.711Z,22.60
2023-01-23T21:02:13.446Z,25.12
2023-01-23T21:04:46.107Z,25.15
2023-01-23T21:07:20.688Z,26.30
2023-01-23T21:09:53.511Z,24.12
2023-01-23T21:12:26.021Z,22.20
2023-01-23T21:14:58.521Z,25.52
2023-01-23T21:17:31.076Z,27.75
2023-01-23T21:20:04.156Z,27.45
2023-01-23T21:22:36.915Z,19.52
2023-01-23T21:25:10.408Z,22.75
2023-01-23T21:27:43.628Z,23.18
2023-01-23T21:30:16.591Z,24.32
2023-01-23T21:32:50.379Z,21.77
2023-01-23T21:35:23.605Z,23.40
2023-01-23T21:37:56.562Z,19.35
2023-01-23T21:40:29.173Z,21.55
2023-01-23T21:43:01.762Z,24.95
2023-01-23T21:45:34.423Z,21.50
2023-01-23T21:48:07.424Z,21.55
2023-01-23T21:50:42.825Z,20.75
2023-01-23T21:53:15.410Z,25.43
2023-01-23T21:55:54.444Z,20.55
2023-01-23T21:58:27.262Z,24.15
2023-01-23T22:01:23.198Z,28.23
2023-01-23T22:03:57.453Z,21.27
2023-01-23T22:06:30.295Z,20.75
2023-01-23T22:09:03.133Z,26.07
2023-01-23T22:11:36.450Z,25.00
2023-01-23T22:14:09.217Z,28.17
2023-01-23T22:16:50.245Z,22.30
2023-01-23T22:19:25.047Z,23.60
2023-01-23T22:21:57.375Z,26.65
2023-01-23T22:24:30.561Z,31.75
2023-01-23T22:27:04.254Z,25.48
2023-01-23T22:29:36.682Z,23.80
2023-01-23T22:32:09.304Z,19.52
2023-01-23T22:34:41.995Z,28.73
2023-01-23T22:37:14.579Z,20.85
2023-01-23T22:39:47.762Z,21.55
2023-01-23T22:42:21.127Z,20.57
2023-01-23T22:44:53.485Z,28.45
2023-01-23T22:47:26.001Z,27.85
2023-01-23T22:49:58.605Z,30.72
2023-01-23T22:52:31.055Z,22.93
2023-01-23T22:55:03.949Z,25.88
2023-01-23T22:57:36.830Z,23.20
2023-01-23T23:00:15.434Z,22.65
2023-01-23T23:02:47.792Z,22.25
2023-01-23T23:05:20.760Z,23.50
2023-01-23T23:07:53.982Z,22.02
2023-01-23T23:10:27.479Z,24.47
2023-01-23T23:13:00.061Z,22.73
2023-01-23T23:15:33.405Z,24.07
2023-01-23T23:18:06.248Z,24.63
2023-01-23T23:20:39.952Z,23.65
2023-01-23T23:23:12.748Z,18.87
2023-01-23T23:25:45.091Z,24.00
2023-01-23T23:28:17.683Z,20.43
2023-01-23T23:30:50.179Z,22.75
2023-01-23T23:33:22.830Z,23.40
2023-01-23T23:35:56.374Z,24.05
2023-01-23T23:38:28.689Z,20.10
2023-01-23T23:43:51.491Z,20.95
2023-01-23T23:46:24.036Z,20.77
2023-01-23T23:48:56.637Z,19.98
2023-01-23T23:51:30.037Z,24.20
2023-01-23T23:54:02.899Z,19.70
2023-01-23T23:56:35.483Z,21.10
2023-01-23T23:59:17.236Z,19.90
